createdAt,value
2018-03-20T00:02:25.511Z,15.40
2018-03-20T00:04:54.014Z,15.40
2018-03-20T00:07:21.750Z,15.40
2018-03-20T00:09:49.600Z,15.40
2018-03-20T00:12:17.351Z,15.40
2018-03-20T00:14:45.094Z,15.40
2018-03-20T00:17:12.862Z,15.30
2018-03-20T00:19:40.628Z,15.30
2018-03-20T00:22:09.083Z,15.30
2018-03-20T00:24:36.851Z,15.20
2018-03-20T00:27:04.591Z,15.10
2018-03-20T00:29:33.103Z,15.10
2018-03-20T00:32:01.139Z,15.10
2018-03-20T00:34:29.650Z,15.10
2018-03-20T00:36:57.435Z,15.00
2018-03-20T00:39:25.171Z,15.00
2018-03-20T00:41:52.903Z,15.10
2018-03-20T00:44:20.634Z,15.10
2018-03-20T00:46:48.376Z,15.10
2018-03-20T00:49:16.159Z,15.10
2018-03-20T00:51:43.937Z,15.10
2018-03-20T00:54:11.734Z,15.10
2018-03-20T00:56:40.150Z,15.00
2018-03-20T00:59:07.916Z,15.00
2018-03-20T01:01:35.699Z,15.00
2018-03-20T01:04:03.492Z,15.00
2018-03-20T01:06:32.048Z,15.00
2018-03-20T01:08:59.832Z,15.00
2018-03-20T01:11:27.628Z,15.00
2018-03-20T01:13:55.410Z,15.00
2018-03-20T01:16:23.205Z,14.90
2018-03-20T01:18:50.968Z,14.90
2018-03-20T01:21:18.725Z,14.90
2018-03-20T01:23:46.512Z,14.90
2018-03-20T01:26:14.254Z,14.90
2018-03-20T01:28:42.107Z,14.90
2018-03-20T01:31:10.556Z,15.00
2018-03-20T01:33:40.756Z,15.00
2018-03-20T01:36:09.262Z,14.90
2018-03-20T01:38:36.996Z,14.90
2018-03-20T01:41:04.718Z,14.90
2018-03-20T01:43:32.494Z,14.90
2018-03-20T01:46:00.230Z,14.90
2018-03-20T01:48:27.967Z,14.90
2018-03-20T01:50:56.462Z,14.90
2018-03-20T01:53:24.194Z,14.90
2018-03-20T01:55:51.925Z,14.90
2018-03-20T01:58:19.667Z,14.90
2018-03-20T02:00:47.399Z,14.90
2018-03-20T02:03:15.897Z,14.90
2018-03-20T02:05:43.627Z,14.90
2018-03-20T02:08:11.359Z,14.90
2018-03-20T02:10:39.102Z,14.90
2018-03-20T02:13:06.887Z,14.90
2018-03-20T02:15:34.630Z,14.90
2018-03-20T02:18:02.387Z,14.90
2018-03-20T02:20:30.177Z,14.90
2018-03-20T02:22:57.935Z,14.90
2018-03-20T02:25:25.672Z,14.80
2018-03-20T02:27:53.419Z,14.80
2018-03-20T02:30:21.930Z,14.80
2018-03-20T02:32:49.659Z,14.80
2018-03-20T02:35:18.218Z,14.70
2018-03-20T02:37:47.191Z,14.70
2018-03-20T02:40:15.130Z,14.70
2018-03-20T02:42:42.863Z,14.70
2018-03-20T02:45:11.365Z,14.60
2018-03-20T02:47:39.201Z,14.60
2018-03-20T02:50:07.755Z,14.50
2018-03-20T02:52:36.285Z,14.50
2018-03-20T02:55:04.071Z,14.50
2018-03-20T02:57:31.808Z,14.40
2018-03-20T03:00:00.308Z,14.40
2018-03-20T03:02:28.036Z,14.30
2018-03-20T03:04:55.774Z,14.30
2018-03-20T03:07:23.516Z,14.30
2018-03-20T03:09:51.277Z,14.30
2018-03-20T03:12:19.677Z,14.30
2018-03-20T03:14:48.102Z,14.20
2018-03-20T03:17:17.006Z,14.10
2018-03-20T03:19:44.955Z,14.10
2018-03-20T03:22:13.635Z,14.10
2018-03-20T03:24:42.131Z,14.10
2018-03-20T03:27:12.020Z,14.00
2018-03-20T03:29:40.502Z,14.00
2018-03-20T03:32:10.531Z,14.10
2018-03-20T03:34:41.163Z,14.00
2018-03-20T03:37:09.662Z,14.00
2018-03-20T03:39:37.391Z,14.00
2018-03-20T03:42:05.778Z,14.00
2018-03-20T03:44:35.170Z,14.00
2018-03-20T03:47:03.800Z,14.10
2018-03-20T03:49:31.541Z,14.00
2018-03-20T03:51:59.508Z,14.00
2018-03-20T03:54:28.924Z,14.00
2018-03-20T03:56:56.651Z,13.90
2018-03-20T03:59:24.389Z,14.00
2018-03-20T04:01:52.939Z,13.90
2018-03-20T04:04:20.675Z,13.90
2018-03-20T04:06:49.187Z,13.90
2018-03-20T04:09:17.468Z,13.90
2018-03-20T04:11:45.870Z,13.90
2018-03-20T04:14:13.599Z,13.90
2018-03-20T04:16:41.323Z,13.90
2018-03-20T04:19:09.063Z,13.90
2018-03-20T04:21:37.246Z,13.80
2018-03-20T04:24:05.755Z,13.90
2018-03-20T04:26:34.260Z,13.80
2018-03-20T04:29:02.414Z,13.70
2018-03-20T04:31:30.911Z,13.80
2018-03-20T04:33:59.215Z,13.80
2018-03-20T04:36:26.943Z,13.80
2018-03-20T04:38:55.438Z,13.80
2018-03-20T04:41:23.178Z,13.80
2018-03-20T04:43:52.459Z,13.80
2018-03-20T04:46:21.751Z,13.80
2018-03-20T04:48:49.482Z,13.80
2018-03-20T04:51:18.311Z,13.80
2018-03-20T04:53:46.392Z,13.80
2018-03-20T04:56:15.944Z,13.80
2018-03-20T04:58:43.663Z,13.80
2018-03-20T05:01:12.158Z,13.80
2018-03-20T05:03:39.902Z,13.80
2018-03-20T05:06:07.731Z,13.80
2018-03-20T05:08:35.471Z,13.80
2018-03-20T05:11:03.223Z,13.80
2018-03-20T05:13:30.963Z,13.80
2018-03-20T05:15:59.519Z,13.70
2018-03-20T05:18:28.166Z,13.70
2018-03-20T05:21:01.479Z,13.80
2018-03-20T05:23:50.099Z,13.80
2018-03-20T05:26:19.538Z,13.80
2018-03-20T05:28:48.082Z,13.90
2018-03-20T05:31:15.874Z,13.90
2018-03-20T05:33:44.446Z,13.90
2018-03-20T05:36:12.464Z,13.90
2018-03-20T05:38:40.258Z,13.90
2018-03-20T05:41:11.420Z,13.80
2018-03-20T05:43:39.210Z,13.80
2018-03-20T05:46:07.625Z,13.80
2018-03-20T05:48:40.147Z,13.80
2018-03-20T05:54:16.545Z,13.60
2018-03-20T05:56:45.016Z,13.60
2018-03-20T05:59:12.783Z,13.60
2018-03-20T06:01:40.515Z,13.60
2018-03-20T06:04:09.563Z,13.60
2018-03-20T06:06:37.291Z,13.60
2018-03-20T06:09:05.166Z,13.60
2018-03-20T06:11:33.323Z,13.60
2018-03-20T06:14:01.058Z,13.60
2018-03-20T06:16:29.563Z,13.60
2018-03-20T06:18:57.318Z,13.60
2018-03-20T06:21:25.840Z,13.60
2018-03-20T06:23:53.566Z,13.60
2018-03-20T06:26:21.303Z,13.60
2018-03-20T06:28:49.039Z,13.60
2018-03-20T06:31:16.783Z,13.50
2018-03-20T06:33:44.711Z,13.50
2018-03-20T06:36:13.263Z,13.50
2018-03-20T06:38:40.995Z,13.50
2018-03-20T06:41:08.742Z,13.50
2018-03-20T06:43:36.479Z,13.50
2018-03-20T06:46:05.219Z,13.50
2018-03-20T06:48:32.954Z,13.50
2018-03-20T06:51:00.741Z,13.50
2018-03-20T06:53:28.447Z,13.50
2018-03-20T06:55:58.426Z,13.50
2018-03-20T06:58:26.183Z,13.50
2018-03-20T07:00:54.747Z,13.50
2018-03-20T07:03:22.487Z,13.40
2018-03-20T07:05:51.411Z,13.40
2018-03-20T07:08:19.248Z,13.40
2018-03-20T07:10:47.794Z,13.50
2018-03-20T07:13:16.456Z,13.50
2018-03-20T07:15:44.625Z,13.50
2018-03-20T07:18:12.396Z,13.60
2018-03-20T07:20:41.146Z,13.50
2018-03-20T07:23:09.923Z,13.60
2018-03-20T07:25:38.419Z,13.50
2018-03-20T07:28:06.155Z,13.50
2018-03-20T07:30:33.883Z,13.50
2018-03-20T07:33:01.616Z,13.50
2018-03-20T07:35:30.317Z,13.50
2018-03-20T07:37:58.054Z,13.60
2018-03-20T07:40:25.795Z,13.60
2018-03-20T07:42:54.471Z,13.70
2018-03-20T07:45:22.208Z,13.60
2018-03-20T07:47:50.516Z,13.70
2018-03-20T07:50:19.067Z,13.70
2018-03-20T07:52:46.867Z,13.80
2018-03-20T07:55:15.389Z,13.90
2018-03-20T07:57:43.873Z,13.90
2018-03-20T08:00:11.603Z,14.00
2018-03-20T08:02:40.107Z,14.20
2018-03-20T08:05:07.831Z,14.10
2018-03-20T08:07:35.556Z,14.20
2018-03-20T08:10:03.347Z,14.20
2018-03-20T08:12:31.078Z,14.30
2018-03-20T08:14:58.808Z,14.40
2018-03-20T08:17:27.306Z,14.50
2018-03-20T08:19:55.032Z,14.50
2018-03-20T08:22:22.767Z,14.60
2018-03-20T08:24:50.491Z,14.60
2018-03-20T08:27:18.215Z,14.70
2018-03-20T08:29:45.934Z,14.70
2018-03-20T08:32:13.668Z,14.70
2018-03-20T08:34:42.171Z,14.90
2018-03-20T08:37:09.898Z,14.90
2018-03-20T08:39:38.415Z,15.00
2018-03-20T08:42:06.147Z,15.00
2018-03-20T08:44:34.643Z,15.20
2018-03-20T08:47:02.398Z,15.10
2018-03-20T08:49:30.899Z,15.20
2018-03-20T08:51:58.623Z,15.20
2018-03-20T08:54:26.355Z,15.30
2018-03-20T08:56:54.083Z,15.40
2018-03-20T08:59:21.850Z,15.50
2018-03-20T09:01:49.586Z,15.50
2018-03-20T09:04:18.079Z,15.60
2018-03-20T09:06:46.575Z,15.70
2018-03-20T09:09:14.311Z,15.70
2018-03-20T09:11:42.804Z,15.80
2018-03-20T09:14:11.299Z,15.80
2018-03-20T09:16:39.115Z,15.80
2018-03-20T09:19:06.845Z,15.80
2018-03-20T09:21:34.583Z,15.90
2018-03-20T09:24:02.312Z,15.90
2018-03-20T09:26:30.055Z,15.90
2018-03-20T09:28:57.809Z,16.00
2018-03-20T09:31:25.539Z,16.10
2018-03-20T09:33:53.276Z,16.20
2018-03-20T09:36:21.782Z,16.30
2018-03-20T09:38:49.521Z,16.30
2018-03-20T09:41:19.048Z,16.50
2018-03-20T09:43:46.955Z,16.40
2018-03-20T09:46:14.699Z,16.50
2018-03-20T09:48:42.442Z,16.60
2018-03-20T09:51:10.196Z,16.60
2018-03-20T09:53:38.681Z,16.70
2018-03-20T09:56:06.418Z,16.70
2018-03-20T09:58:34.242Z,16.80
2018-03-20T10:01:01.955Z,16.80
2018-03-20T10:03:30.507Z,16.90
2018-03-20T10:05:58.266Z,16.80
2018-03-20T10:08:25.990Z,16.90
2018-03-20T10:10:53.723Z,17.00
2018-03-20T10:13:21.455Z,17.10
2018-03-20T10:15:49.214Z,17.10
2018-03-20T10:18:17.070Z,17.20
2018-03-20T10:20:44.786Z,17.30
2018-03-20T10:23:13.410Z,17.50
2018-03-20T10:25:41.168Z,17.40
2018-03-20T10:28:09.121Z,17.50
2018-03-20T10:30:36.910Z,17.50
2018-03-20T10:33:04.853Z,17.50
2018-03-20T10:35:32.613Z,17.50
2018-03-20T10:38:01.236Z,17.50
2018-03-20T10:40:28.974Z,17.50
2018-03-20T10:42:56.705Z,17.60
2018-03-20T10:45:25.194Z,17.60
2018-03-20T10:47:53.727Z,17.60
2018-03-20T10:50:21.519Z,17.60
2018-03-20T10:52:50.040Z,17.70
2018-03-20T10:55:17.770Z,17.70
2018-03-20T10:57:45.583Z,17.70
2018-03-20T11:00:13.374Z,17.70
2018-03-20T11:02:47.030Z,17.60
2018-03-20T11:05:14.849Z,17.50
2018-03-20T11:07:42.543Z,17.30
2018-03-20T11:10:10.275Z,17.20
2018-03-20T11:12:38.023Z,17.20
2018-03-20T11:15:05.773Z,17.10
2018-03-20T11:17:33.555Z,17.00
2018-03-20T11:20:01.306Z,17.00
2018-03-20T11:22:29.041Z,17.00
2018-03-20T11:24:56.771Z,17.00
2018-03-20T11:27:24.557Z,16.90
2018-03-20T11:29:53.084Z,16.70
2018-03-20T11:32:21.767Z,16.70
2018-03-20T11:34:49.551Z,16.70
2018-03-20T11:37:17.290Z,16.70
2018-03-20T11:39:58.699Z,16.80
2018-03-20T11:49:09.541Z,16.60
2018-03-20T11:51:37.342Z,16.60
2018-03-20T11:54:05.574Z,16.70
2018-03-20T11:56:33.336Z,16.90
2018-03-20T11:59:01.061Z,16.90
2018-03-20T12:01:29.369Z,17.00
2018-03-20T12:03:57.086Z,17.10
2018-03-20T12:06:24.809Z,17.20
2018-03-20T12:08:53.408Z,17.30
2018-03-20T12:11:21.142Z,17.40
2018-03-20T12:13:48.871Z,17.50
2018-03-20T12:16:16.594Z,17.50
2018-03-20T12:18:45.110Z,17.60
2018-03-20T12:21:12.873Z,17.50
2018-03-20T12:23:40.605Z,17.60
2018-03-20T12:26:08.342Z,17.60
2018-03-20T12:28:36.059Z,17.70
2018-03-20T12:31:03.814Z,17.70
2018-03-20T12:33:31.590Z,17.70
2018-03-20T12:35:59.303Z,17.80
2018-03-20T12:38:27.813Z,17.80
2018-03-20T12:46:41.884Z,17.90
2018-03-20T12:49:10.377Z,17.90
2018-03-20T12:51:38.112Z,17.90
2018-03-20T12:54:06.642Z,18.00
2018-03-20T12:56:34.387Z,18.00
2018-03-20T12:59:02.127Z,18.00
2018-03-20T13:01:30.671Z,18.10
2018-03-20T13:03:58.407Z,18.10
2018-03-20T13:06:26.156Z,18.10
2018-03-20T13:08:53.888Z,18.10
2018-03-20T13:11:22.402Z,18.20
2018-03-20T13:13:50.127Z,18.20
2018-03-20T13:16:17.860Z,18.30
2018-03-20T13:18:45.604Z,18.30
2018-03-20T13:21:14.153Z,18.40
2018-03-20T13:23:42.662Z,18.40
2018-03-20T13:26:10.393Z,18.40
2018-03-20T13:28:38.881Z,18.40
2018-03-20T13:31:07.393Z,18.40
2018-03-20T13:33:35.112Z,18.40
2018-03-20T13:36:03.721Z,18.50
2018-03-20T13:38:31.496Z,18.50
2018-03-20T13:40:59.278Z,18.60
2018-03-20T13:43:27.009Z,18.70
2018-03-20T13:45:54.798Z,18.70
2018-03-20T13:48:22.543Z,18.70
2018-03-20T13:50:52.605Z,18.60
2018-03-20T13:53:18.768Z,18.50
2018-03-20T13:55:47.267Z,18.40
2018-03-20T13:58:14.998Z,18.40
2018-03-20T14:00:42.709Z,18.30
2018-03-20T14:03:10.455Z,18.30
2018-03-20T14:05:38.190Z,18.20
2018-03-20T14:08:06.687Z,18.10
2018-03-20T14:10:35.187Z,17.90
2018-03-20T14:13:03.213Z,17.90
2018-03-20T14:15:31.036Z,17.90
2018-03-20T14:17:58.820Z,17.80
2018-03-20T14:20:26.550Z,17.70
2018-03-20T14:22:54.282Z,17.70
2018-03-20T14:25:22.795Z,17.60
2018-03-20T14:27:50.562Z,17.60
2018-03-20T14:30:18.290Z,17.50
2018-03-20T14:32:46.820Z,17.40
2018-03-20T14:35:14.601Z,17.50
2018-03-20T14:37:42.327Z,17.40
2018-03-20T14:40:10.080Z,17.30
2018-03-20T14:42:37.817Z,17.30
2018-03-20T14:45:06.404Z,17.30
2018-03-20T14:47:34.132Z,17.30
2018-03-20T14:50:01.870Z,17.30
2018-03-20T14:52:29.605Z,17.30
2018-03-20T14:54:58.224Z,17.40
2018-03-20T14:57:25.958Z,17.30
2018-03-20T14:59:54.458Z,17.40
2018-03-20T15:02:22.200Z,17.40
2018-03-20T15:04:49.939Z,17.30
2018-03-20T15:07:17.744Z,17.30
2018-03-20T15:09:46.304Z,17.20
2018-03-20T15:12:14.044Z,17.20
2018-03-20T15:14:41.773Z,17.20
2018-03-20T15:17:09.507Z,17.10
2018-03-20T15:19:37.225Z,17.10
2018-03-20T15:22:05.010Z,17.10
2018-03-20T15:24:32.765Z,17.00
2018-03-20T15:27:00.890Z,17.00
2018-03-20T15:36:48.231Z,16.90
2018-03-20T15:39:16.105Z,16.90
2018-03-20T15:45:05.344Z,16.80
2018-03-20T15:47:33.585Z,16.80
2018-03-20T16:03:11.501Z,16.50
2018-03-20T16:44:43.496Z,16.20
2018-03-20T17:07:35.563Z,16.30
2018-03-20T17:10:04.039Z,16.20
2018-03-20T17:19:10.247Z,16.30
2018-03-20T17:25:10.936Z,16.20
2018-03-20T18:42:16.219Z,15.30
2018-03-20T18:44:44.207Z,15.40
2018-03-20T19:26:17.126Z,15.20
2018-03-20T19:28:44.971Z,15.20
2018-03-20T19:35:04.538Z,15.10
2018-03-20T19:37:32.321Z,15.10
2018-03-20T19:40:00.086Z,15.10
2018-03-20T19:53:28.033Z,15.10
2018-03-20T19:55:55.759Z,15.10
2018-03-20T20:02:23.725Z,15.10
2018-03-20T20:07:33.569Z,15.10
2018-03-20T20:10:47.039Z,15.00
2018-03-20T20:13:14.898Z,15.00
2018-03-20T20:15:42.650Z,15.00
2018-03-20T20:18:11.681Z,14.90
2018-03-20T20:21:14.038Z,14.90
2018-03-20T20:23:41.823Z,14.90
2018-03-20T20:29:31.848Z,14.90
2018-03-20T20:31:59.638Z,14.80
2018-03-20T20:34:35.674Z,14.90
2018-03-20T20:37:03.513Z,14.90
2018-03-20T20:39:32.736Z,14.90
2018-03-20T20:42:01.461Z,14.90
2018-03-20T20:47:59.957Z,14.90
2018-03-20T20:50:28.264Z,14.90
2018-03-20T20:56:28.689Z,14.90
2018-03-20T21:02:29.298Z,14.90
2018-03-20T21:09:09.096Z,14.90
2018-03-20T21:11:36.838Z,14.80
2018-03-20T21:14:06.117Z,14.80
2018-03-20T21:16:33.886Z,14.80
2018-03-20T21:19:03.106Z,14.80
2018-03-20T21:21:32.404Z,14.80
2018-03-20T21:27:56.941Z,14.70
2018-03-20T21:30:24.557Z,14.70
2018-03-20T21:32:52.298Z,14.70
2018-03-20T21:35:20.040Z,14.70
2018-03-20T21:37:53.419Z,14.70
2018-03-20T21:40:42.752Z,14.70
2018-03-20T21:43:18.094Z,14.60
2018-03-20T21:48:31.099Z,14.60
2018-03-20T21:51:10.592Z,14.60
2018-03-20T21:56:41.499Z,14.60
2018-03-20T21:59:15.186Z,14.60
2018-03-20T22:12:58.923Z,14.60
2018-03-20T22:15:45.668Z,14.60
2018-03-20T22:18:25.025Z,14.60
2018-03-20T22:20:57.340Z,14.60
2018-03-20T22:29:42.148Z,14.50
2018-03-20T22:32:12.953Z,14.50
2018-03-20T22:34:55.285Z,14.50
2018-03-20T22:40:32.898Z,14.50
2018-03-20T22:43:02.482Z,14.50
2018-03-20T22:45:38.321Z,14.50
2018-03-20T23:28:35.288Z,14.30
